Time;durP1;ratioP1;P1;durP2;ratioP2;P2;SDS_P1;SDS_P2;PMS_P1;PMS_P2;Temp;Humidity;BMP_temperature;BMP_pressure;BME280_temperature;BME280_humidity;BME280_pressure;Samples;Min_cycle;Max_cycle;Signal;HPM_P1;HPM_P2
2021/12/22 00:02:19;;;;;;;24.30;14.45;;;-0.50;99.90;;;;;;5007896;28;20022;-74
2021/12/22 00:04:48;;;;;;;25.35;14.60;;;-0.50;99.90;;;;;;5010754;28;20056;-74
2021/12/22 00:07:15;;;;;;;33.30;14.98;;;-0.50;99.90;;;;;;5009854;28;20101;-75
2021/12/22 00:09:42;;;;;;;26.15;14.65;;;-0.50;99.90;;;;;;5011169;28;20054;-75
2021/12/22 00:12:08;;;;;;;26.10;15.27;;;-0.50;99.90;;;;;;5010275;28;20945;-74
2021/12/22 00:14:34;;;;;;;23.60;14.52;;;-0.50;99.90;;;;;;5010323;28;20050;-74
2021/12/22 00:16:59;;;;;;;25.15;13.85;;;-0.40;99.90;;;;;;5004733;28;20054;-74
2021/12/22 00:19:25;;;;;;;26.42;15.63;;;-0.40;99.90;;;;;;5006492;28;20052;-74
2021/12/22 00:21:51;;;;;;;34.22;14.52;;;-0.40;99.90;;;;;;5005242;28;20050;-74
2021/12/22 00:24:17;;;;;;;28.15;15.88;;;-0.50;99.90;;;;;;5010002;28;20028;-74
2021/12/22 00:26:42;;;;;;;21.70;13.70;;;-0.50;99.90;;;;;;5006696;28;20072;-75
2021/12/22 00:29:08;;;;;;;25.33;14.02;;;-0.50;99.90;;;;;;5005065;28;20045;-74
2021/12/22 00:31:42;;;;;;;23.13;13.98;;;-0.50;99.90;;;;;;5008345;28;20052;-74
2021/12/22 00:34:16;;;;;;;22.98;12.88;;;-0.50;99.90;;;;;;5010740;28;20022;-73
2021/12/22 00:36:42;;;;;;;26.13;12.70;;;-0.60;99.90;;;;;;5004953;28;20033;-74
2021/12/22 00:39:07;;;;;;;24.92;13.30;;;-0.60;99.90;;;;;;5006559;28;20407;-74
2021/12/22 00:41:33;;;;;;;25.27;12.48;;;-0.70;99.90;;;;;;5007438;28;20023;-74
2021/12/22 00:43:59;;;;;;;23.65;12.65;;;-0.70;99.90;;;;;;5009742;28;20547;-74
2021/12/22 00:46:24;;;;;;;22.85;11.98;;;-0.70;99.90;;;;;;5011138;28;20093;-74
2021/12/22 00:48:50;;;;;;;22.30;11.45;;;-0.70;99.90;;;;;;5010106;28;20030;-75
2021/12/22 00:51:16;;;;;;;20.83;12.00;;;-0.80;99.90;;;;;;5012129;28;20053;-75
2021/12/22 00:53:42;;;;;;;23.40;13.20;;;-0.80;99.90;;;;;;5008798;28;20376;-74
2021/12/22 00:56:08;;;;;;;21.65;11.48;;;-0.80;99.90;;;;;;5009354;28;20026;-74
2021/12/22 00:58:34;;;;;;;19.38;11.02;;;-0.70;99.90;;;;;;5010328;28;20026;-74
2021/12/22 01:01:01;;;;;;;24.52;11.98;;;-0.70;99.90;;;;;;5013398;28;20018;-74
2021/12/22 01:03:27;;;;;;;23.83;10.77;;;-0.80;99.90;;;;;;5014519;28;20034;-74
2021/12/22 01:05:53;;;;;;;19.80;10.82;;;-0.80;99.90;;;;;;5014256;28;20020;-74
2021/12/22 01:08:19;;;;;;;22.98;11.50;;;-0.80;99.90;;;;;;4999120;28;20105;-74
2021/12/22 01:10:46;;;;;;;20.42;10.88;;;-0.80;99.90;;;;;;5014623;28;20033;-74
2021/12/22 01:13:12;;;;;;;21.63;11.30;;;-0.80;99.90;;;;;;5011078;28;20026;-74
2021/12/22 01:15:39;;;;;;;19.98;10.25;;;-0.80;99.90;;;;;;5012825;28;20048;-74
2021/12/22 01:18:12;;;;;;;19.42;9.73;;;-0.90;99.90;;;;;;5014436;28;20022;-74
2021/12/22 01:23:51;;;;;;;23.95;11.82;;;-0.90;99.90;;;;;;4960837;28;20098;-73
2021/12/22 01:26:17;;;;;;;22.73;11.00;;;-1.00;99.90;;;;;;5014343;28;20018;-74
2021/12/22 01:28:43;;;;;;;21.38;11.40;;;-1.10;99.90;;;;;;5013589;28;20030;-75
2021/12/22 01:31:15;;;;;;;19.77;10.93;;;-1.10;99.90;;;;;;5010780;28;20092;-74
2021/12/22 01:33:41;;;;;;;20.55;10.68;;;-1.10;99.90;;;;;;5014324;28;20042;-74
2021/12/22 01:36:07;;;;;;;17.40;9.63;;;-1.10;99.90;;;;;;5013870;28;20097;-76
2021/12/22 01:38:32;;;;;;;21.05;11.60;;;-1.10;99.90;;;;;;5010399;28;20065;-75
2021/12/22 01:40:58;;;;;;;20.17;9.98;;;-1.00;99.90;;;;;;5014582;28;20025;-74
2021/12/22 01:43:24;;;;;;;22.00;11.05;;;-1.00;99.90;;;;;;5014057;28;20053;-74
2021/12/22 01:46:07;;;;;;;19.48;10.55;;;-1.00;99.90;;;;;;5012639;28;20030;-74
2021/12/22 01:51:31;;;;;;;18.13;9.80;;;-1.10;99.90;;;;;;5010940;28;20032;-74
2021/12/22 01:54:02;;;;;;;20.77;10.38;;;-1.10;99.90;;;;;;5012081;28;20105;-75
2021/12/22 01:56:30;;;;;;;21.50;11.07;;;-1.10;99.90;;;;;;5012734;28;20481;-74
2021/12/22 01:58:58;;;;;;;21.20;11.40;;;-1.10;99.90;;;;;;5013522;28;20033;-75
2021/12/22 02:01:26;;;;;;;24.58;11.18;;;-1.10;99.90;;;;;;5013433;28;20018;-75
2021/12/22 02:03:52;;;;;;;25.30;11.05;;;-1.20;99.90;;;;;;5010582;28;20041;-75
2021/12/22 02:06:18;;;;;;;20.60;10.80;;;-1.10;99.90;;;;;;5013506;28;20018;-75
2021/12/22 02:08:45;;;;;;;19.50;11.13;;;-1.00;99.90;;;;;;5014008;28;20033;-75
2021/12/22 02:11:12;;;;;;;18.05;10.38;;;-1.00;99.90;;;;;;5012996;28;20026;-74
2021/12/22 02:13:42;;;;;;;22.88;11.88;;;-1.10;99.90;;;;;;5010856;28;20045;-74
2021/12/22 02:16:12;;;;;;;23.58;12.48;;;-1.10;99.90;;;;;;4993588;28;20049;-74
2021/12/22 02:18:41;;;;;;;26.13;12.95;;;-1.10;99.90;;;;;;5011617;28;20545;-75
2021/12/22 02:21:08;;;;;;;23.30;12.65;;;-1.20;99.90;;;;;;5006392;28;20029;-74
2021/12/22 02:23:34;;;;;;;26.63;14.20;;;-1.30;99.90;;;;;;5008006;28;20108;-74
2021/12/22 02:26:09;;;;;;;25.88;13.70;;;-1.30;99.90;;;;;;5021712;28;20021;-75
2021/12/22 02:28:37;;;;;;;24.15;12.68;;;-1.30;99.90;;;;;;5010518;28;20034;-75
2021/12/22 02:31:03;;;;;;;25.77;13.00;;;-1.30;99.90;;;;;;5010650;28;20030;-74
2021/12/22 02:33:36;;;;;;;22.60;12.02;;;-1.30;99.90;;;;;;5009673;28;20029;-74
2021/12/22 02:38:41;;;;;;;26.98;12.75;;;-1.30;99.90;;;;;;5011711;28;20084;-75
2021/12/22 02:41:11;;;;;;;24.00;12.88;;;-1.40;99.90;;;;;;5010989;28;20073;-75
2021/12/22 02:43:45;;;;;;;29.02;13.65;;;-1.40;99.90;;;;;;5008391;28;20480;-75
2021/12/22 02:46:11;;;;;;;28.45;12.95;;;-1.40;99.90;;;;;;5013722;28;20030;-75
2021/12/22 02:48:38;;;;;;;26.77;13.77;;;-1.40;99.90;;;;;;5014746;28;20029;-75
2021/12/22 02:51:04;;;;;;;23.45;13.20;;;-1.40;99.90;;;;;;5009608;28;20427;-75
2021/12/22 03:02:04;;;;;;;24.88;12.88;;;-1.50;99.90;;;;;;5011107;28;20111;-75
2021/12/22 03:04:23;;;;;;;25.67;13.65;;;-1.50;99.90;;;;;;5010779;28;20022;-75
2021/12/22 03:07:00;;;;;;;30.95;14.65;;;-1.60;99.90;;;;;;5003603;28;20089;-74
2021/12/22 03:09:32;;;;;;;32.40;13.35;;;-1.70;99.90;;;;;;5012705;28;20028;-75
2021/12/22 03:12:01;;;;;;;26.80;13.23;;;-1.70;99.90;;;;;;5012421;28;20033;-75
2021/12/22 03:14:27;;;;;;;32.88;13.85;;;-1.70;99.90;;;;;;5012520;28;20021;-75
2021/12/22 03:16:54;;;;;;;30.30;14.15;;;-1.70;99.90;;;;;;5011619;28;20026;-75
2021/12/22 03:19:23;;;;;;;26.80;14.13;;;-1.70;99.90;;;;;;5016548;28;20032;-74
2021/12/22 03:21:52;;;;;;;30.65;14.35;;;-1.70;99.90;;;;;;5010261;28;20076;-74
2021/12/22 03:24:20;;;;;;;24.50;13.68;;;-1.80;99.90;;;;;;5012384;28;20105;-74
2021/12/22 03:26:46;;;;;;;29.70;14.20;;;-1.80;99.90;;;;;;5006080;28;20037;-74
2021/12/22 03:29:14;;;;;;;27.65;13.10;;;-1.80;99.90;;;;;;5012243;28;20029;-74
2021/12/22 03:31:42;;;;;;;23.23;12.30;;;-1.80;99.90;;;;;;5012353;28;20029;-75
2021/12/22 03:34:09;;;;;;;28.52;12.43;;;-1.80;99.90;;;;;;5010874;28;20451;-74
2021/12/22 03:36:35;;;;;;;23.17;10.95;;;-1.70;99.90;;;;;;5015047;28;20021;-74
2021/12/22 03:39:02;;;;;;;22.33;11.48;;;-1.70;99.90;;;;;;5010311;28;20064;-74
2021/12/22 03:41:28;;;;;;;25.88;12.20;;;-1.70;99.90;;;;;;5009881;28;20045;-74
2021/12/22 03:43:53;;;;;;;19.88;10.70;;;-1.70;99.90;;;;;;5011311;28;20049;-74
2021/12/22 03:46:19;;;;;;;24.70;10.98;;;-1.70;99.90;;;;;;5004995;28;20052;-74
2021/12/22 03:48:45;;;;;;;20.75;11.35;;;-1.70;99.90;;;;;;5011091;28;20061;-74
2021/12/22 03:51:10;;;;;;;19.05;9.43;;;-1.70;99.90;;;;;;5012135;28;20096;-75
2021/12/22 03:53:36;;;;;;;18.40;9.55;;;-1.60;99.90;;;;;;5008188;28;20030;-74
2021/12/22 03:56:02;;;;;;;20.33;9.88;;;-1.60;99.90;;;;;;5021617;28;20052;-74
2021/12/22 03:58:28;;;;;;;16.33;9.10;;;-1.60;99.90;;;;;;5008599;28;20034;-74
2021/12/22 04:00:56;;;;;;;21.58;10.80;;;-1.70;99.90;;;;;;5011139;28;20032;-74
2021/12/22 04:03:25;;;;;;;22.42;11.38;;;-1.70;99.90;;;;;;5011778;28;20060;-74
2021/12/22 04:05:51;;;;;;;16.13;9.43;;;-1.70;99.90;;;;;;5011081;28;20030;-74
2021/12/22 04:08:18;;;;;;;17.95;9.35;;;-1.70;99.90;;;;;;5012206;28;20447;-74
2021/12/22 04:10:49;;;;;;;18.17;9.75;;;-1.70;99.90;;;;;;5006336;28;20034;-74
2021/12/22 04:13:15;;;;;;;19.13;9.48;;;-1.80;99.90;;;;;;5037352;22;20480;-71
2021/12/22 04:15:42;;;;;;;18.58;9.10;;;-1.80;99.90;;;;;;5041805;28;20067;-71
2021/12/22 04:18:08;;;;;;;20.55;9.77;;;-1.90;99.90;;;;;;5042364;28;20037;-72
2021/12/22 04:20:34;;;;;;;17.45;9.25;;;-1.80;99.90;;;;;;5046649;28;20028;-71
2021/12/22 04:23:01;;;;;;;18.25;9.68;;;-1.90;99.90;;;;;;5046105;28;20444;-71
2021/12/22 04:25:27;;;;;;;19.13;9.52;;;-1.90;99.90;;;;;;5046262;28;20055;-71
2021/12/22 04:27:56;;;;;;;21.45;10.07;;;-1.90;99.90;;;;;;5046225;28;20508;-71
2021/12/22 04:30:24;;;;;;;17.85;8.82;;;-2.00;99.90;;;;;;5046402;28;20528;-71
2021/12/22 04:32:50;;;;;;;17.90;8.68;;;-2.00;99.90;;;;;;5045580;28;20025;-72
2021/12/22 04:35:17;;;;;;;20.02;9.30;;;-1.90;99.90;;;;;;5048394;28;20171;-71
2021/12/22 04:37:42;;;;;;;18.67;9.75;;;-1.90;99.90;;;;;;5047009;28;20075;-71
2021/12/22 04:40:09;;;;;;;20.42;10.15;;;-2.00;99.90;;;;;;5047466;28;20021;-71
2021/12/22 04:42:34;;;;;;;20.38;9.43;;;-2.00;99.90;;;;;;5045747;28;20025;-70
2021/12/22 04:45:04;;;;;;;20.55;9.43;;;-2.00;99.90;;;;;;5046315;28;20086;-71
2021/12/22 04:47:31;;;;;;;17.05;9.30;;;-2.00;99.90;;;;;;5046904;28;20029;-71
2021/12/22 04:49:56;;;;;;;22.30;10.57;;;-2.00;99.90;;;;;;5047246;28;20040;-72
2021/12/22 04:52:25;;;;;;;23.27;9.98;;;-2.10;99.90;;;;;;5046494;28;20021;-71
2021/12/22 04:55:03;;;;;;;20.92;9.77;;;-2.10;99.90;;;;;;5043711;28;20072;-72
2021/12/22 04:57:31;;;;;;;21.25;10.43;;;-2.10;99.90;;;;;;5045536;28;20406;-71
2021/12/22 04:59:57;;;;;;;21.20;11.02;;;-2.10;99.90;;;;;;5050306;28;20025;-71
2021/12/22 05:02:23;;;;;;;17.15;9.25;;;-2.10;99.90;;;;;;5043149;28;20239;-71
2021/12/22 05:04:49;;;;;;;18.65;10.10;;;-2.10;99.90;;;;;;5048732;28;20067;-71
2021/12/22 05:07:15;;;;;;;20.40;10.10;;;-2.20;99.90;;;;;;5046128;28;20036;-73
2021/12/22 05:09:40;;;;;;;19.73;9.82;;;-2.20;99.90;;;;;;5047409;28;20049;-71
2021/12/22 05:12:06;;;;;;;22.45;10.50;;;-2.30;99.90;;;;;;5047291;28;20382;-70
2021/12/22 05:14:32;;;;;;;19.00;9.60;;;-2.30;99.90;;;;;;5046678;28;20603;-70
2021/12/22 05:17:04;;;;;;;20.10;9.85;;;-2.40;99.90;;;;;;5045355;28;20120;-70
2021/12/22 05:19:30;;;;;;;22.35;9.88;;;-2.30;99.90;;;;;;5046702;28;20025;-71
2021/12/22 05:21:56;;;;;;;23.80;11.38;;;-2.40;99.90;;;;;;5046880;28;20033;-71
2021/12/22 05:24:22;;;;;;;17.83;9.30;;;-2.40;99.90;;;;;;5046713;28;20067;-72
2021/12/22 05:26:48;;;;;;;19.65;10.15;;;-2.30;99.90;;;;;;5047027;28;20032;-71
2021/12/22 05:29:14;;;;;;;18.45;10.02;;;-2.40;99.90;;;;;;5047003;28;20398;-71
2021/12/22 05:31:39;;;;;;;21.58;9.95;;;-2.40;99.90;;;;;;5044636;28;20033;-72
2021/12/22 05:34:05;;;;;;;21.48;10.27;;;-2.40;99.90;;;;;;5046343;28;20017;-70
2021/12/22 05:36:31;;;;;;;20.35;9.93;;;-2.40;99.90;;;;;;5044575;28;20486;-71
2021/12/22 05:38:57;;;;;;;20.08;9.35;;;-2.50;99.90;;;;;;5043788;28;20532;-70
2021/12/22 05:41:23;;;;;;;19.00;10.18;;;-2.50;99.90;;;;;;5044672;28;20029;-71
2021/12/22 05:43:49;;;;;;;18.75;9.52;;;-2.50;99.90;;;;;;5043053;28;20032;-70
2021/12/22 05:46:15;;;;;;;21.60;11.18;;;-2.50;99.90;;;;;;5048753;28;20025;-70
2021/12/22 05:48:40;;;;;;;23.77;9.73;;;-2.60;99.90;;;;;;5051134;28;20103;-71
2021/12/22 05:51:07;;;;;;;19.63;9.85;;;-2.60;99.90;;;;;;5049307;28;20021;-71
2021/12/22 05:53:33;;;;;;;19.70;10.05;;;-2.60;99.90;;;;;;5048771;28;20025;-71
2021/12/22 05:55:58;;;;;;;21.23;9.95;;;-2.60;99.90;;;;;;5048125;28;20091;-71
2021/12/22 05:58:25;;;;;;;22.02;9.73;;;-2.60;99.90;;;;;;5048237;28;20108;-72
2021/12/22 06:00:51;;;;;;;20.25;10.18;;;-2.60;99.90;;;;;;5045262;28;20025;-72
2021/12/22 06:03:17;;;;;;;23.10;10.43;;;-2.60;99.90;;;;;;5052354;28;20044;-71
2021/12/22 06:05:43;;;;;;;18.25;9.52;;;-2.70;99.90;;;;;;5050352;28;20029;-71
2021/12/22 06:08:09;;;;;;;19.30;9.57;;;-2.60;99.90;;;;;;5050454;28;20493;-72
2021/12/22 06:10:35;;;;;;;22.08;10.80;;;-2.70;99.90;;;;;;5049390;28;20147;-72
2021/12/22 06:13:05;;;;;;;23.10;10.18;;;-2.70;99.90;;;;;;5049329;28;20116;-72
2021/12/22 06:15:32;;;;;;;24.42;11.23;;;-2.80;99.90;;;;;;5049157;28;20067;-73
2021/12/22 06:17:59;;;;;;;22.15;9.57;;;-2.80;99.90;;;;;;5056168;28;20052;-72
2021/12/22 06:20:26;;;;;;;22.50;10.00;;;-2.70;99.90;;;;;;5051188;28;21326;-72
2021/12/22 06:22:52;;;;;;;22.27;10.68;;;-2.70;99.90;;;;;;5048222;28;20524;-72
2021/12/22 06:25:18;;;;;;;21.88;10.50;;;-2.80;99.90;;;;;;5049591;28;20040;-73
2021/12/22 06:27:44;;;;;;;27.45;10.45;;;-2.80;99.90;;;;;;5046087;28;20024;-74
2021/12/22 06:30:10;;;;;;;21.48;10.10;;;-2.90;99.90;;;;;;5047950;28;20029;-71
2021/12/22 06:32:36;;;;;;;23.00;10.57;;;-2.90;99.90;;;;;;5050487;28;20409;-71
2021/12/22 06:35:02;;;;;;;28.23;11.35;;;-2.90;99.90;;;;;;5045132;28;20041;-70
2021/12/22 06:37:28;;;;;;;20.60;9.35;;;-2.80;99.90;;;;;;5049773;28;20490;-73
2021/12/22 06:39:54;;;;;;;25.25;10.40;;;-2.80;99.90;;;;;;5047944;28;20039;-71
2021/12/22 06:42:20;;;;;;;22.83;10.57;;;-2.90;99.90;;;;;;5046574;28;20025;-72
2021/12/22 06:44:46;;;;;;;22.10;10.10;;;-2.80;99.90;;;;;;5048328;28;20021;-72
2021/12/22 06:47:11;;;;;;;22.88;11.40;;;-2.80;99.90;;;;;;5050803;28;20108;-72
2021/12/22 06:49:38;;;;;;;20.20;11.13;;;-2.90;99.90;;;;;;5051162;28;20123;-71
2021/12/22 06:52:04;;;;;;;21.75;10.18;;;-3.00;99.90;;;;;;5050140;28;20025;-71
2021/12/22 06:54:32;;;;;;;22.92;10.40;;;-3.00;99.90;;;;;;5048998;28;20453;-74
2021/12/22 06:56:58;;;;;;;26.25;10.65;;;-3.10;99.90;;;;;;5048812;28;20103;-73
2021/12/22 06:59:24;;;;;;;23.23;10.05;;;-3.20;99.90;;;;;;5049451;28;20056;-72
2021/12/22 07:01:50;;;;;;;23.98;10.40;;;-3.20;99.90;;;;;;5050163;28;20376;-72
2021/12/22 07:04:17;;;;;;;28.83;11.70;;;-3.20;99.90;;;;;;5049794;28;20057;-72
2021/12/22 07:06:43;;;;;;;26.63;11.93;;;-3.20;99.90;;;;;;5048695;28;20025;-72
2021/12/22 07:09:09;;;;;;;23.95;11.15;;;-3.20;99.90;;;;;;5050717;28;20039;-73
2021/12/22 07:11:36;;;;;;;25.23;10.73;;;-3.30;99.90;;;;;;5049321;28;20025;-72
2021/12/22 07:14:06;;;;;;;27.55;11.57;;;-3.20;99.90;;;;;;5049506;28;20583;-72
2021/12/22 07:16:32;;;;;;;24.40;10.82;;;-3.20;99.90;;;;;;5048482;28;20099;-73
2021/12/22 07:18:57;;;;;;;25.17;10.85;;;-3.20;99.90;;;;;;5046566;28;20108;-72
2021/12/22 07:21:24;;;;;;;25.15;10.00;;;-3.20;99.90;;;;;;5049358;28;20028;-73
2021/12/22 07:23:50;;;;;;;25.75;10.80;;;-3.20;99.90;;;;;;5048390;28;20506;-72
2021/12/22 07:26:16;;;;;;;26.83;10.32;;;-3.10;99.90;;;;;;5047428;28;20112;-73
2021/12/22 07:28:46;;;;;;;24.27;10.65;;;-3.10;99.90;;;;;;5048771;28;20060;-72
2021/12/22 07:31:14;;;;;;;25.50;10.48;;;-3.10;99.90;;;;;;5048767;28;20035;-72
2021/12/22 07:33:48;;;;;;;28.05;11.02;;;-3.10;99.90;;;;;;5045608;28;20503;-73
2021/12/22 07:36:14;;;;;;;30.65;11.57;;;-3.20;99.90;;;;;;5049468;28;20032;-72
2021/12/22 07:38:40;;;;;;;23.35;10.02;;;-3.30;99.90;;;;;;5050010;28;20074;-72
2021/12/22 07:41:07;;;;;;;30.90;10.68;;;-3.30;99.90;;;;;;5045235;28;20027;-72
2021/12/22 07:43:34;;;;;;;26.58;10.55;;;-3.30;99.90;;;;;;5047037;28;20563;-72
2021/12/22 07:46:02;;;;;;;29.90;12.90;;;-3.40;99.90;;;;;;5046565;28;20094;-72
2021/12/22 07:48:28;;;;;;;26.52;10.18;;;-3.30;99.90;;;;;;5049441;28;20025;-73
2021/12/22 07:50:54;;;;;;;26.90;12.55;;;-3.30;99.90;;;;;;5048585;28;20048;-74
2021/12/22 07:53:20;;;;;;;26.85;11.15;;;-3.30;99.90;;;;;;5048408;28;20486;-72
2021/12/22 07:55:46;;;;;;;27.27;11.10;;;-3.30;99.90;;;;;;5047926;28;20044;-73
2021/12/22 07:58:12;;;;;;;27.70;11.18;;;-3.40;99.90;;;;;;5049214;28;20041;-73
2021/12/22 08:00:38;;;;;;;24.92;10.63;;;-3.40;99.90;;;;;;5047436;28;20035;-73
2021/12/22 08:03:04;;;;;;;28.00;10.43;;;-3.50;99.90;;;;;;5048246;28;20196;-72
2021/12/22 08:05:30;;;;;;;24.52;9.95;;;-3.40;99.90;;;;;;5048490;28;20029;-73
2021/12/22 08:07:58;;;;;;;27.30;10.82;;;-3.50;99.90;;;;;;5049211;28;20036;-73
2021/12/22 08:10:24;;;;;;;25.98;9.73;;;-3.50;99.90;;;;;;5052502;28;20107;-72
2021/12/22 08:12:49;;;;;;;29.77;11.48;;;-3.50;99.90;;;;;;5050426;28;20108;-72
2021/12/22 08:15:15;;;;;;;33.42;12.77;;;-3.40;99.90;;;;;;5049051;28;20041;-72
2021/12/22 08:17:42;;;;;;;27.50;12.13;;;-3.40;99.90;;;;;;5050304;28;20494;-72
2021/12/22 08:20:09;;;;;;;33.03;11.95;;;-3.30;99.90;;;;;;5051453;28;20029;-72
2021/12/22 08:22:34;;;;;;;26.92;11.15;;;-3.40;99.90;;;;;;5050942;28;20414;-73
2021/12/22 08:25:00;;;;;;;35.30;12.57;;;-3.40;99.90;;;;;;5047818;28;20238;-72
2021/12/22 08:27:26;;;;;;;28.98;11.70;;;-3.50;99.90;;;;;;5053206;28;20593;-72
2021/12/22 08:29:53;;;;;;;35.92;12.93;;;-3.50;99.90;;;;;;5051257;28;20056;-71
2021/12/22 08:32:19;;;;;;;31.63;13.35;;;-3.50;99.90;;;;;;5049162;28;20402;-71
2021/12/22 08:34:47;;;;;;;30.20;11.32;;;-3.50;99.90;;;;;;5047170;28;20028;-73
2021/12/22 08:39:58;;;;;;;31.60;12.07;;;-3.50;99.90;;;;;;5052994;28;20029;-73
2021/12/22 08:42:25;;;;;;;35.10;12.73;;;-3.50;99.90;;;;;;5049168;28;20494;-74
2021/12/22 08:44:52;;;;;;;33.88;13.55;;;-3.60;99.90;;;;;;5050320;28;20029;-74
2021/12/22 08:47:18;;;;;;;38.47;13.95;;;-3.70;99.90;;;;;;5050557;28;20051;-74
2021/12/22 08:49:47;;;;;;;36.08;12.05;;;-3.70;99.90;;;;;;5049964;28;20103;-73
2021/12/22 08:52:13;;;;;;;36.25;12.88;;;-3.60;99.90;;;;;;5050037;28;20021;-74
2021/12/22 08:54:39;;;;;;;39.72;14.20;;;-3.60;99.90;;;;;;5047137;28;20029;-74
2021/12/22 08:57:06;;;;;;;36.92;13.40;;;-3.60;99.90;;;;;;5048834;28;20108;-73
2021/12/22 08:59:31;;;;;;;31.45;13.10;;;-3.50;99.90;;;;;;5044521;28;20450;-73
2021/12/22 09:01:58;;;;;;;38.63;14.45;;;-3.40;99.90;;;;;;5044796;28;20471;-73
2021/12/22 09:04:24;;;;;;;31.65;13.20;;;-3.30;99.90;;;;;;5049041;28;20039;-75
2021/12/22 09:06:51;;;;;;;38.35;13.50;;;-3.20;99.90;;;;;;5049725;28;20025;-73
2021/12/22 09:09:19;;;;;;;36.50;14.27;;;-3.00;99.90;;;;;;5035393;28;20514;-73
2021/12/22 09:11:45;;;;;;;35.58;14.85;;;-2.90;99.90;;;;;;5052924;28;20100;-72
2021/12/22 09:14:11;;;;;;;37.90;14.93;;;-2.90;99.90;;;;;;5053255;28;20155;-73
2021/12/22 09:16:38;;;;;;;35.33;13.98;;;-2.90;99.90;;;;;;5051301;28;20082;-73
2021/12/22 09:19:06;;;;;;;33.05;13.27;;;-2.90;99.90;;;;;;5048820;28;20033;-73
2021/12/22 09:21:33;;;;;;;40.05;14.00;;;-3.00;99.90;;;;;;5049675;28;20052;-73
2021/12/22 09:23:59;;;;;;;38.05;14.35;;;-2.90;99.90;;;;;;5052621;28;20486;-73
2021/12/22 09:26:25;;;;;;;34.50;14.00;;;-2.90;99.90;;;;;;5053488;28;20078;-76
2021/12/22 09:28:51;;;;;;;38.92;14.68;;;-3.00;99.90;;;;;;5057479;28;20037;-73
2021/12/22 09:31:17;;;;;;;38.17;14.73;;;-2.90;99.90;;;;;;5052752;28;20108;-73
2021/12/22 09:33:44;;;;;;;37.97;14.82;;;-2.90;99.90;;;;;;5052416;28;20033;-73
2021/12/22 09:36:11;;;;;;;40.80;13.30;;;-2.90;99.90;;;;;;5053543;28;20099;-73
2021/12/22 09:38:37;;;;;;;40.45;14.65;;;-2.80;99.90;;;;;;5059920;28;20040;-72
2021/12/22 09:41:04;;;;;;;37.38;15.63;;;-2.70;99.90;;;;;;5055327;28;20051;-75
2021/12/22 09:43:30;;;;;;;42.78;15.15;;;-2.60;99.90;;;;;;5051623;28;20078;-72
2021/12/22 09:46:02;;;;;;;39.13;15.10;;;-2.60;99.90;;;;;;5050262;28;20032;-72
2021/12/22 09:48:36;;;;;;;36.60;14.77;;;-2.50;99.90;;;;;;5051266;28;20056;-73
2021/12/22 09:53:36;;;;;;;41.42;16.33;;;-2.30;99.90;;;;;;5051076;28;20413;-72
2021/12/22 09:56:03;;;;;;;40.90;15.23;;;-2.30;99.90;;;;;;5048889;28;20029;-72
2021/12/22 09:58:29;;;;;;;41.25;16.75;;;-2.30;99.90;;;;;;5051283;28;20025;-72
2021/12/22 10:00:58;;;;;;;37.70;13.90;;;-2.20;99.90;;;;;;5052059;28;20036;-72
2021/12/22 10:03:25;;;;;;;42.42;15.32;;;-2.20;99.90;;;;;;5050050;28;20021;-72
2021/12/22 10:05:51;;;;;;;40.78;15.73;;;-2.10;99.90;;;;;;5050180;28;20068;-73
2021/12/22 10:08:23;;;;;;;42.08;15.55;;;-2.00;99.90;;;;;;5047509;28;20426;-72
2021/12/22 10:11:22;;;;;;;43.20;14.80;;;-2.00;99.90;;;;;;5050518;28;20387;-73
2021/12/22 10:13:48;;;;;;;41.28;15.68;;;-1.90;99.90;;;;;;5023614;28;20083;-73
2021/12/22 10:16:20;;;;;;;40.53;15.38;;;-1.90;99.90;;;;;;5053530;28;20028;-75
2021/12/22 10:18:47;;;;;;;42.25;16.60;;;-1.80;99.90;;;;;;5051092;28;20064;-74
2021/12/22 10:21:21;;;;;;;48.85;16.92;;;-1.90;99.90;;;;;;5052513;28;20025;-74
2021/12/22 10:23:49;;;;;;;38.55;15.40;;;-1.80;99.90;;;;;;5054838;28;20024;-74
2021/12/22 10:26:21;;;;;;;41.13;15.15;;;-1.80;99.90;;;;;;5052574;28;20056;-74
2021/12/22 10:28:57;;;;;;;39.65;15.20;;;-1.70;99.90;;;;;;5053160;28;20064;-74
2021/12/22 10:31:32;;;;;;;36.05;15.95;;;-1.60;99.90;;;;;;5052322;28;20112;-74
2021/12/22 10:34:00;;;;;;;38.65;16.77;;;-1.50;99.90;;;;;;5049415;28;20029;-74
2021/12/22 10:36:26;;;;;;;42.08;16.77;;;-1.50;99.90;;;;;;5060931;28;20409;-75
2021/12/22 10:38:55;;;;;;;39.72;15.88;;;-1.40;99.90;;;;;;5052533;28;20036;-74
2021/12/22 10:41:26;;;;;;;37.67;15.18;;;-1.40;99.90;;;;;;5052911;28;20033;-75
2021/12/22 10:43:53;;;;;;;38.15;14.45;;;-1.40;99.90;;;;;;5052411;28;20091;-75
2021/12/22 10:46:27;;;;;;;41.08;15.98;;;-1.50;99.90;;;;;;5045949;28;20021;-73
2021/12/22 10:49:19;;;;;;;33.80;13.25;;;-1.50;99.90;;;;;;5047262;28;20083;-72
2021/12/22 10:51:56;;;;;;;35.80;15.15;;;-1.50;99.90;;;;;;5048812;28;20033;-75
2021/12/22 10:54:31;;;;;;;32.78;14.20;;;-1.60;99.90;;;;;;5050615;28;20761;-76
2021/12/22 10:56:58;;;;;;;31.02;13.23;;;-1.60;99.90;;;;;;5050523;28;20032;-75
2021/12/22 10:59:24;;;;;;;32.97;14.43;;;-1.60;99.90;;;;;;5056004;28;20029;-74
2021/12/22 11:01:53;;;;;;;32.53;14.30;;;-1.60;99.90;;;;;;5052476;28;20059;-74
2021/12/22 11:04:24;;;;;;;31.17;13.85;;;-1.60;99.90;;;;;;5049164;28;20052;-75
2021/12/22 11:06:52;;;;;;;33.13;14.65;;;-1.60;99.90;;;;;;5051137;28;20078;-74
2021/12/22 11:09:19;;;;;;;39.22;15.40;;;-1.50;99.90;;;;;;5050362;28;20546;-75
2021/12/22 11:11:47;;;;;;;37.58;15.20;;;-1.60;99.90;;;;;;5050322;28;20583;-73
2021/12/22 11:14:22;;;;;;;37.20;14.32;;;-1.60;99.90;;;;;;5051069;28;20127;-75
2021/12/22 11:17:09;;;;;;;37.72;14.88;;;-1.50;99.90;;;;;;5050883;28;20025;-74
2021/12/22 11:19:53;;;;;;;34.33;15.05;;;-1.50;99.90;;;;;;5067062;28;20394;-74
2021/12/22 11:22:24;;;;;;;35.97;15.60;;;-1.40;99.90;;;;;;5048063;28;20434;-74
2021/12/22 11:24:51;;;;;;;;;;;-1.40;99.90;;;;;;5050099;28;20108;-73
2021/12/22 11:27:27;;;;;;;35.92;14.75;;;-1.30;99.90;;;;;;5048561;28;19908;-74
2021/12/22 11:29:55;;;;;;;33.55;15.18;;;-1.20;99.90;;;;;;5047973;28;20274;-73
2021/12/22 11:32:26;;;;;;;36.72;15.70;;;-1.20;99.90;;;;;;5049001;28;20064;-74
2021/12/22 11:34:54;;;;;;;;;;;-1.10;99.90;;;;;;5050889;28;20029;-73
2021/12/22 11:37:22;;;;;;;33.97;14.30;;;-1.10;99.90;;;;;;5049417;28;19913;-75
2021/12/22 11:39:48;;;;;;;34.38;14.15;;;-1.10;99.90;;;;;;5049262;28;20029;-75
2021/12/22 11:42:14;;;;;;;36.35;13.77;;;-1.20;99.90;;;;;;5048221;28;20013;-75
2021/12/22 11:44:45;;;;;;;33.47;14.98;;;-1.20;99.90;;;;;;5046062;28;20313;-74
2021/12/22 11:47:14;;;;;;;39.58;15.25;;;-1.20;99.90;;;;;;5047808;28;20200;-74
2021/12/22 11:49:58;;;;;;;34.65;14.05;;;-1.20;99.90;;;;;;5049617;28;20505;-74
2021/12/22 11:53:10;;;;;;;36.22;14.68;;;-1.10;99.90;;;;;;5051054;28;20040;-73
2021/12/22 11:55:45;;;;;;;33.15;14.57;;;-1.10;99.90;;;;;;5028535;28;20124;-74
2021/12/22 11:58:33;;;;;;;35.63;14.55;;;-1.10;99.90;;;;;;5046870;28;20025;-74
2021/12/22 12:01:08;;;;;;;30.75;14.35;;;-1.10;99.90;;;;;;5040364;28;20033;-73
2021/12/22 12:03:40;;;;;;;30.95;14.40;;;-1.10;99.90;;;;;;5050171;28;20063;-74
2021/12/22 12:06:18;;;;;;;38.60;15.23;;;-1.00;99.90;;;;;;5045905;28;20021;-73
2021/12/22 12:08:49;;;;;;;34.53;15.07;;;-0.90;99.90;;;;;;5047569;28;20483;-73
2021/12/22 12:11:20;;;;;;;34.35;14.80;;;-1.00;99.90;;;;;;5049475;28;20096;-75
2021/12/22 12:13:56;;;;;;;38.55;15.85;;;-1.00;99.90;;;;;;5048479;28;20513;-74
2021/12/22 12:22:23;;;;;;;33.38;14.32;;;-0.90;99.90;;;;;;5049661;28;20029;-75
2021/12/22 12:24:58;;;;;;;33.75;14.50;;;-0.90;99.90;;;;;;5048313;28;20020;-75
2021/12/22 12:27:30;;;;;;;34.03;14.90;;;-0.90;99.90;;;;;;5048038;28;20109;-74
2021/12/22 12:29:56;;;;;;;32.65;15.23;;;-1.00;99.90;;;;;;5048318;28;20028;-75
2021/12/22 12:32:40;;;;;;;34.38;14.23;;;-0.90;99.90;;;;;;5049122;28;20501;-75
2021/12/22 12:35:18;;;;;;;33.22;15.00;;;-0.90;99.90;;;;;;5047237;28;20021;-75
2021/12/22 12:38:06;;;;;;;34.22;14.70;;;-0.80;99.90;;;;;;5049412;28;20033;-75
2021/12/22 12:41:00;;;;;;;34.38;14.25;;;-0.80;99.90;;;;;;5048400;28;20029;-74
2021/12/22 12:46:19;;;;;;;35.30;14.75;;;-0.60;99.90;;;;;;5048767;28;20104;-74
2021/12/22 12:48:50;;;;;;;32.15;14.10;;;-0.60;99.90;;;;;;5048129;28;20029;-74
2021/12/22 12:51:24;;;;;;;;;;;-0.50;99.90;;;;;;5047661;28;20087;-74
2021/12/22 12:53:52;;;;;;;33.65;13.68;;;-0.50;99.90;;;;;;5049231;28;19924;-74
2021/12/22 12:56:19;;;;;;;32.42;13.55;;;-0.60;99.90;;;;;;5051793;28;20382;-74
2021/12/22 12:58:55;;;;;;;33.97;14.13;;;-0.70;99.90;;;;;;5052511;28;20040;-74
2021/12/22 13:01:50;;;;;;;37.85;15.68;;;-0.80;99.90;;;;;;5050623;28;20037;-75
2021/12/22 13:04:23;;;;;;;38.35;16.13;;;-0.80;99.90;;;;;;5051904;28;20028;-74
2021/12/22 13:07:13;;;;;;;38.60;16.52;;;-0.80;99.90;;;;;;5035737;28;20032;-74